Time;durP1;ratioP1;P1;durP2;ratioP2;P2;SDS_P1;SDS_P2;PMS_P1;PMS_P2;Temp;Humidity;BMP_temperature;BMP_pressure;BME280_temperature;BME280_humidity;BME280_pressure;Samples;Min_cycle;Max_cycle;Signal;HPM_P1;HPM_P2
2024/04/08 00:00:32;;;;;;;9.07;2.60;;;15.10;75.50;;;;;;5014426;28;20396;-76
2024/04/08 00:02:57;;;;;;;7.38;3.13;;;15.00;77.20;;;;;;5013152;28;20484;-77
2024/04/08 00:05:23;;;;;;;8.13;4.00;;;15.00;79.50;;;;;;5013629;28;20397;-77
2024/04/08 00:07:51;;;;;;;8.27;3.35;;;14.70;83.30;;;;;;5014371;28;20419;-76
2024/04/08 00:10:17;;;;;;;9.40;3.40;;;15.80;86.60;;;;;;5015114;28;20409;-74
2024/04/08 00:12:44;;;;;;;10.48;3.95;;;14.70;90.30;;;;;;5015977;28;20416;-75
2024/04/08 00:15:11;;;;;;;12.48;3.35;;;14.70;92.00;;;;;;5015979;28;20447;-75
2024/04/08 00:17:37;;;;;;;9.30;3.73;;;14.90;89.10;;;;;;5016802;28;20396;-76
2024/04/08 00:20:04;;;;;;;8.73;3.92;;;;;;;;;;5021133;28;20389;-77
2024/04/08 00:22:30;;;;;;;8.65;3.60;;;14.70;93.50;;;;;;5019232;28;20899;-76
2024/04/08 00:24:56;;;;;;;11.07;3.90;;;14.80;95.90;;;;;;5018843;28;20397;-77
2024/04/08 00:27:21;;;;;;;5.47;3.90;;;14.80;94.20;;;;;;5019652;28;20416;-77
2024/04/08 00:29:47;;;;;;;8.40;3.67;;;14.70;94.50;;;;;;5021762;28;20405;-76
2024/04/08 00:32:13;;;;;;;11.90;4.10;;;14.70;93.80;;;;;;5020325;28;20396;-77
2024/04/08 00:34:40;;;;;;;7.60;3.50;;;14.70;93.70;;;;;;5024357;28;20425;-77
2024/04/08 00:37:06;;;;;;;12.70;4.10;;;14.60;94.40;;;;;;5026603;28;20392;-77
2024/04/08 00:39:32;;;;;;;7.10;3.57;;;14.60;93.80;;;;;;5026798;28;20393;-77
2024/04/08 00:41:58;;;;;;;5.03;3.20;;;14.60;95.10;;;;;;5016068;28;20389;-77
2024/04/08 00:44:24;;;;;;;7.07;3.43;;;14.80;93.60;;;;;;5015015;28;20751;-76
2024/04/08 00:46:50;;;;;;;8.10;3.00;;;14.80;85.30;;;;;;5014141;28;20976;-77
2024/04/08 00:49:16;;;;;;;6.10;3.03;;;14.90;83.30;;;;;;5014082;28;20408;-78
2024/04/08 00:51:44;;;;;;;9.45;3.38;;;14.80;85.20;;;;;;5014844;28;20393;-77
2024/04/08 00:54:10;;;;;;;9.38;3.38;;;14.80;86.50;;;;;;5014280;28;20387;-77
2024/04/08 00:56:41;;;;;;;11.23;4.03;;;14.80;88.00;;;;;;5019353;28;20747;-76
2024/04/08 00:59:09;;;;;;;5.53;3.00;;;15.00;83.40;;;;;;5018748;28;20393;-76
2024/04/08 01:01:35;;;;;;;9.85;3.33;;;15.20;82.80;;;;;;5014559;28;20389;-77
2024/04/08 01:04:00;;;;;;;8.57;3.70;;;15.20;82.70;;;;;;5015639;28;20863;-77
2024/04/08 01:06:26;;;;;;;8.47;4.13;;;15.30;81.40;;;;;;5012852;28;20429;-78
2024/04/08 01:08:52;;;;;;;9.33;4.27;;;15.30;83.10;;;;;;5013745;28;20381;-77
2024/04/08 01:11:17;;;;;;;8.50;4.00;;;15.10;80.90;;;;;;5014305;28;20537;-76
2024/04/08 01:13:43;;;;;;;11.75;4.57;;;15.30;79.70;;;;;;5014534;28;20447;-75
2024/04/08 01:16:09;;;;;;;9.45;4.68;;;15.20;80.70;;;;;;5012798;28;20408;-77
2024/04/08 01:18:35;;;;;;;8.70;4.60;;;15.00;83.40;;;;;;5014382;28;20419;-76
2024/04/08 01:24:22;;;;;;;8.55;4.63;;;15.10;81.60;;;;;;5013010;28;20368;-77
2024/04/08 01:26:47;;;;;;;7.38;4.18;;;15.10;80.80;;;;;;5014039;28;20392;-77
2024/04/08 01:29:13;;;;;;;10.40;4.50;;;15.10;80.30;;;;;;5015647;28;20401;-77
2024/04/08 01:31:38;;;;;;;13.20;5.77;;;15.10;81.20;;;;;;5013526;28;20385;-76
2024/04/08 01:34:04;;;;;;;14.60;5.37;;;14.90;82.40;;;;;;5012859;28;20834;-79
2024/04/08 01:36:30;;;;;;;9.93;4.90;;;14.80;86.40;;;;;;5014394;28;20395;-76
2024/04/08 01:38:56;;;;;;;13.38;5.50;;;14.80;90.80;;;;;;5015105;28;20424;-76
2024/04/08 01:41:22;;;;;;;12.02;5.78;;;14.80;91.70;;;;;;5012648;28;20400;-77
2024/04/08 01:43:47;;;;;;;14.90;5.57;;;15.00;89.80;;;;;;5013476;28;20791;-77
2024/04/08 01:46:13;;;;;;;14.85;5.60;;;14.90;88.80;;;;;;5013940;28;20480;-78
2024/04/08 01:48:38;;;;;;;11.13;5.63;;;14.90;91.10;;;;;;5015451;28;20389;-77
2024/04/08 01:51:04;;;;;;;9.07;5.17;;;14.80;91.30;;;;;;5016840;28;20411;-77
2024/04/08 01:53:29;;;;;;;8.90;5.60;;;14.80;92.60;;;;;;5014441;28;20915;-76
2024/04/08 01:55:55;;;;;;;13.00;5.72;;;14.80;93.40;;;;;;5013178;28;20380;-77
2024/04/08 01:58:20;;;;;;;10.38;5.90;;;14.40;93.90;;;;;;5013288;28;20446;-77
2024/04/08 02:00:46;;;;;;;11.10;6.50;;;14.60;95.30;;;;;;5015516;28;20878;-77
2024/04/08 02:03:11;;;;;;;16.87;7.37;;;14.40;95.40;;;;;;5018073;28;20389;-76
2024/04/08 02:05:37;;;;;;;18.80;8.75;;;14.30;97.80;;;;;;5020881;28;20385;-77
2024/04/08 02:08:03;;;;;;;16.58;8.85;;;14.10;99.90;;;;;;5016939;28;20396;-77
2024/04/08 02:10:28;;;;;;;22.40;10.43;;;14.00;99.90;;;;;;5017064;28;20539;-76
2024/04/08 02:12:54;;;;;;;22.57;10.10;;;13.90;99.90;;;;;;5015548;28;20480;-76
2024/04/08 02:15:19;;;;;;;19.52;10.73;;;13.80;99.90;;;;;;5011952;28;20914;-76
2024/04/08 02:17:45;;;;;;;20.92;11.05;;;13.60;99.90;;;;;;5012015;28;20871;-76
2024/04/08 02:20:10;;;;;;;19.23;11.20;;;13.70;99.90;;;;;;5011702;28;20435;-78
2024/04/08 02:22:36;;;;;;;20.53;10.77;;;13.50;99.90;;;;;;5012108;28;20412;-77
2024/04/08 02:25:02;;;;;;;23.27;10.80;;;13.50;99.90;;;;;;5012401;28;20419;-76
2024/04/08 02:27:28;;;;;;;14.80;9.05;;;13.40;99.90;;;;;;5020750;28;20416;-77
2024/04/08 02:29:54;;;;;;;20.77;7.65;;;13.40;99.90;;;;;;5023096;28;20423;-75
2024/04/08 02:32:20;;;;;;;9.02;5.65;;;13.70;99.90;;;;;;5019352;28;21028;-75
2024/04/08 02:34:46;;;;;;;12.20;6.10;;;13.70;97.70;;;;;;5015456;28;20388;-76
2024/04/08 02:37:11;;;;;;;11.30;5.30;;;13.60;99.40;;;;;;5011454;28;20452;-76
2024/04/08 02:39:36;;;;;;;8.90;5.27;;;13.80;95.00;;;;;;5010124;28;20486;-77
2024/04/08 02:42:06;;;;;;;11.80;5.30;;;13.90;92.30;;;;;;5011230;28;20392;-76
2024/04/08 02:44:32;;;;;;;10.43;4.80;;;14.10;90.70;;;;;;5010703;28;20396;-77
2024/04/08 02:46:58;;;;;;;13.65;5.97;;;14.00;89.50;;;;;;5011132;28;20396;-76
2024/04/08 02:49:24;;;;;;;8.50;4.90;;;13.80;92.70;;;;;;5010892;28;20420;-77
2024/04/08 02:51:49;;;;;;;10.88;5.00;;;13.50;97.20;;;;;;5012495;28;20447;-77
2024/04/08 02:54:15;;;;;;;8.02;4.68;;;13.50;99.40;;;;;;5022263;28;20389;-77
2024/04/08 02:56:40;;;;;;;11.10;4.60;;;13.50;98.90;;;;;;5022653;28;20732;-77
2024/04/08 02:59:06;;;;;;;12.20;5.90;;;13.30;99.90;;;;;;5024013;28;20397;-77
2024/04/08 03:01:31;;;;;;;10.00;4.50;;;12.70;99.90;;;;;;5024997;28;20384;-77
2024/04/08 03:03:57;;;;;;;9.80;5.07;;;13.20;99.90;;;;;;5023913;28;20468;-77
2024/04/08 03:06:23;;;;;;;20.08;5.32;;;13.50;99.90;;;;;;5014865;28;20393;-77
2024/04/08 03:08:49;;;;;;;9.77;4.40;;;13.60;98.50;;;;;;5011625;28;20747;-76
2024/04/08 03:11:15;;;;;;;9.88;5.13;;;13.70;96.90;;;;;;5012013;28;20392;-77
2024/04/08 03:13:40;;;;;;;8.82;4.22;;;14.30;99.20;;;;;;5011000;28;20384;-76
2024/04/08 03:16:06;;;;;;;8.32;4.75;;;13.50;98.70;;;;;;5011592;28;20381;-76
2024/04/08 03:18:32;;;;;;;10.00;4.78;;;13.50;99.10;;;;;;5010662;28;20729;-76
2024/04/08 03:21:01;;;;;;;11.17;4.70;;;13.30;99.90;;;;;;5010484;28;20393;-76
2024/04/08 03:23:27;;;;;;;5.63;3.90;;;13.20;99.90;;;;;;5010917;28;20443;-76
2024/04/08 03:26:03;;;;;;;14.15;5.22;;;13.00;99.90;;;;;;5010593;28;20803;-76
2024/04/08 03:28:29;;;;;;;10.80;5.30;;;12.80;99.90;;;;;;5010722;28;20590;-76
2024/04/08 03:30:56;;;;;;;9.15;5.43;;;12.60;99.90;;;;;;5010833;28;20420;-77
2024/04/08 03:33:23;;;;;;;12.23;5.80;;;12.50;99.90;;;;;;5010666;28;20437;-75
2024/04/08 03:35:49;;;;;;;13.20;5.30;;;12.60;99.90;;;;;;5010661;28;20393;-76
2024/04/08 03:38:15;;;;;;;9.40;5.55;;;12.70;99.90;;;;;;5012551;28;20583;-76
2024/04/08 03:40:41;;;;;;;10.00;5.72;;;12.70;99.90;;;;;;5014341;28;20751;-75
2024/04/08 03:43:07;;;;;;;8.23;5.40;;;13.00;99.90;;;;;;5013617;28;20475;-75
2024/04/08 03:45:33;;;;;;;13.90;6.00;;;13.10;99.90;;;;;;5014088;28;20835;-75
2024/04/08 03:47:59;;;;;;;10.73;5.60;;;13.10;99.90;;;;;;5013844;28;20427;-75
2024/04/08 03:50:34;;;;;;;9.13;4.88;;;12.90;99.90;;;;;;5014018;28;20408;-76
2024/04/08 03:53:00;;;;;;;11.10;5.30;;;13.20;99.90;;;;;;5013498;28;20392;-76
2024/04/08 03:55:26;;;;;;;10.57;5.30;;;13.20;99.90;;;;;;5013858;28;20446;-76
2024/04/08 03:57:52;;;;;;;10.77;6.07;;;13.20;99.90;;;;;;5013767;28;20385;-75
2024/04/08 04:00:18;;;;;;;10.03;6.20;;;13.10;99.90;;;;;;5014184;28;20994;-75
2024/04/08 04:02:43;;;;;;;10.50;6.03;;;13.00;99.90;;;;;;5013482;28;20424;-76
2024/04/08 04:05:09;;;;;;;14.23;6.77;;;13.00;99.90;;;;;;5014043;28;20388;-77
2024/04/08 04:07:35;;;;;;;9.93;5.90;;;12.90;99.90;;;;;;5014876;28;20391;-77
2024/04/08 04:10:04;;;;;;;16.40;6.15;;;12.80;99.90;;;;;;5015583;28;20405;-76
2024/04/08 04:12:33;;;;;;;8.70;5.55;;;12.80;99.90;;;;;;5014538;28;20798;-77
2024/04/08 04:15:01;;;;;;;13.10;6.70;;;12.80;99.90;;;;;;5013654;28;20807;-76
2024/04/08 04:17:27;;;;;;;10.30;6.30;;;12.90;99.90;;;;;;5013369;28;20448;-76
2024/04/08 04:19:52;;;;;;;11.03;5.80;;;13.10;99.90;;;;;;5013006;28;20864;-76
2024/04/08 04:22:18;;;;;;;10.17;6.13;;;13.10;99.90;;;;;;5012544;28;20910;-77
2024/04/08 04:24:43;;;;;;;11.75;6.00;;;13.10;99.90;;;;;;5013008;28;20385;-76
2024/04/08 04:28:52;;;;;;;12.60;6.90;;;13.20;99.90;;;;;;5579470;25;20402;-77
2024/04/08 04:31:17;;;;;;;9.13;6.37;;;13.20;99.90;;;;;;5572106;25;20825;-76
2024/04/08 04:33:44;;;;;;;12.27;6.40;;;13.20;99.90;;;;;;5541734;25;20326;-76
2024/04/08 04:36:09;;;;;;;9.60;5.90;;;13.30;99.90;;;;;;5542692;25;20767;-76
2024/04/08 04:38:35;;;;;;;9.10;6.03;;;13.30;99.90;;;;;;5545913;25;20365;-77
2024/04/08 04:41:05;;;;;;;14.53;6.10;;;13.30;99.90;;;;;;5467542;21;20375;-74
2024/04/08 04:43:31;;;;;;;10.15;6.00;;;13.40;99.90;;;;;;5431280;26;20331;-72
2024/04/08 04:45:57;;;;;;;12.35;6.00;;;13.40;99.90;;;;;;5431749;26;20860;-73
2024/04/08 04:48:23;;;;;;;14.50;7.65;;;13.50;99.90;;;;;;5431936;26;20400;-73
2024/04/08 04:50:49;;;;;;;13.13;6.90;;;13.50;99.90;;;;;;5431251;26;20372;-72
2024/04/08 04:53:14;;;;;;;13.00;7.50;;;13.90;99.90;;;;;;5431335;26;20322;-73
2024/04/08 04:55:40;;;;;;;15.70;7.80;;;14.10;96.90;;;;;;5431395;26;20331;-72
2024/04/08 04:58:06;;;;;;;13.47;8.00;;;14.20;94.20;;;;;;5431608;26;20411;-73
2024/04/08 05:00:34;;;;;;;14.10;7.95;;;14.30;94.10;;;;;;5431370;26;20924;-72
2024/04/08 05:03:00;;;;;;;13.43;7.75;;;14.20;96.40;;;;;;5431084;26;20366;-73
2024/04/08 05:05:25;;;;;;;13.25;8.15;;;14.20;96.50;;;;;;5431686;26;20326;-72
2024/04/08 05:07:51;;;;;;;18.60;7.10;;;14.20;97.10;;;;;;5431745;26;20322;-72
2024/04/08 05:10:17;;;;;;;13.73;7.97;;;14.20;94.50;;;;;;5431519;26;20338;-72
2024/04/08 05:12:43;;;;;;;14.75;8.57;;;14.10;96.10;;;;;;5431292;26;20323;-73
2024/04/08 05:15:08;;;;;;;14.38;7.90;;;14.00;97.50;;;;;;5432165;26;20370;-72
2024/04/08 05:17:34;;;;;;;15.30;8.93;;;14.10;96.10;;;;;;5432790;26;20375;-72
2024/04/08 05:20:04;;;;;;;19.23;8.57;;;14.00;97.60;;;;;;5431784;26;20371;-71
2024/04/08 05:22:30;;;;;;;15.55;8.00;;;14.20;95.00;;;;;;5430404;26;20327;-73
2024/04/08 05:24:56;;;;;;;19.52;9.05;;;14.20;93.10;;;;;;5431333;26;20426;-74
2024/04/08 05:27:21;;;;;;;15.93;9.20;;;14.00;94.10;;;;;;5430060;26;20331;-72
2024/04/08 05:29:47;;;;;;;14.40;8.70;;;13.80;99.20;;;;;;5430717;26;20338;-70
2024/04/08 05:32:12;;;;;;;16.40;8.90;;;13.80;99.90;;;;;;5430835;26;20335;-72
2024/04/08 05:34:39;;;;;;;16.57;9.17;;;13.60;99.90;;;;;;5431846;26;20431;-71
2024/04/08 05:37:04;;;;;;;19.73;9.60;;;13.50;99.90;;;;;;5430373;26;20382;-70
2024/04/08 05:39:30;;;;;;;15.97;9.50;;;13.40;99.90;;;;;;5420761;26;20331;-71
2024/04/08 05:41:55;;;;;;;15.00;9.60;;;13.40;99.90;;;;;;5416598;26;20328;-72
2024/04/08 05:44:21;;;;;;;19.03;9.50;;;13.30;99.90;;;;;;5414897;26;20426;-73
2024/04/08 05:46:47;;;;;;;18.33;9.00;;;13.40;99.90;;;;;;5414667;26;20658;-74
2024/04/08 05:49:12;;;;;;;14.00;8.52;;;13.40;99.90;;;;;;5415164;26;20340;-74
2024/04/08 05:51:38;;;;;;;17.20;8.80;;;13.50;99.90;;;;;;5414299;26;20715;-74
2024/04/08 05:54:04;;;;;;;20.97;9.10;;;13.50;99.90;;;;;;5414819;26;20335;-73
2024/04/08 05:56:29;;;;;;;17.23;9.20;;;13.50;99.90;;;;;;5412957;26;20339;-74
2024/04/08 05:58:55;;;;;;;17.77;9.70;;;13.60;99.90;;;;;;5413525;26;20339;-71
2024/04/08 06:01:21;;;;;;;15.67;8.80;;;13.70;99.90;;;;;;5415653;26;20370;-71
2024/04/08 06:03:46;;;;;;;14.85;8.88;;;13.80;99.90;;;;;;5415782;26;20363;-72
2024/04/08 06:06:18;;;;;;;15.93;8.90;;;13.90;99.90;;;;;;5414189;26;20360;-72
2024/04/08 06:08:44;;;;;;;16.13;9.00;;;14.10;99.90;;;;;;5415858;26;20327;-71
2024/04/08 06:11:09;;;;;;;18.52;9.45;;;14.20;98.50;;;;;;5384214;26;20354;-73
2024/04/08 06:13:35;;;;;;;15.82;8.60;;;14.30;96.20;;;;;;5414297;26;20331;-72
2024/04/08 06:16:02;;;;;;;12.13;8.17;;;14.50;93.00;;;;;;5415340;26;20849;-72
2024/04/08 06:18:27;;;;;;;14.90;8.20;;;14.80;90.30;;;;;;5415110;26;20822;-72
2024/04/08 06:20:54;;;;;;;15.57;7.60;;;15.20;88.40;;;;;;5414689;26;20431;-72
2024/04/08 06:23:20;;;;;;;13.05;7.05;;;15.70;74.40;;;;;;5394915;26;20372;-71
2024/04/08 06:25:46;;;;;;;16.00;7.47;;;15.80;71.40;;;;;;5414176;26;20723;-71
2024/04/08 06:28:11;;;;;;;15.85;7.50;;;15.80;72.20;;;;;;5415612;26;20829;-72
2024/04/08 06:30:37;;;;;;;14.63;7.53;;;15.90;70.20;;;;;;5414212;26;20685;-71
2024/04/08 06:33:03;;;;;;;18.42;6.97;;;15.90;67.10;;;;;;5414300;26;20899;-70
2024/04/08 06:35:28;;;;;;;13.67;6.40;;;15.90;66.90;;;;;;5415282;26;20496;-71
2024/04/08 06:37:54;;;;;;;17.30;7.17;;;16.10;65.90;;;;;;5414815;26;20327;-70
2024/04/08 06:40:19;;;;;;;13.18;7.20;;;16.70;58.60;;;;;;5415766;26;20335;-71
2024/04/08 06:42:45;;;;;;;14.50;8.50;;;16.80;57.50;;;;;;5414948;26;20372;-75
2024/04/08 06:45:10;;;;;;;15.20;8.90;;;16.90;55.50;;;;;;5416185;26;20327;-73
2024/04/08 06:47:36;;;;;;;16.70;8.85;;;16.80;57.30;;;;;;5416060;26;20706;-73
2024/04/08 06:50:01;;;;;;;18.63;9.63;;;16.50;59.90;;;;;;5417595;26;20731;-73
2024/04/08 06:52:27;;;;;;;20.97;11.40;;;16.60;59.70;;;;;;5421267;26;20360;-74
2024/04/08 06:54:52;;;;;;;18.70;10.68;;;16.70;60.90;;;;;;5414925;26;20345;-74
2024/04/08 06:57:18;;;;;;;22.40;9.57;;;16.60;59.90;;;;;;5379631;26;20433;-74
2024/04/08 06:59:44;;;;;;;22.23;10.93;;;16.60;59.60;;;;;;5379551;26;20441;-74
2024/04/08 07:02:10;;;;;;;22.35;9.57;;;16.80;59.50;;;;;;5404214;26;20336;-73
2024/04/08 07:04:35;;;;;;;15.77;9.50;;;16.70;58.90;;;;;;5415396;26;20395;-73
2024/04/08 07:07:01;;;;;;;20.23;9.73;;;16.70;58.10;;;;;;5383969;26;20339;-72
2024/04/08 07:09:29;;;;;;;21.30;9.13;;;16.70;58.40;;;;;;5418672;26;20335;-74
2024/04/08 07:11:58;;;;;;;17.10;8.30;;;17.20;59.30;;;;;;5421953;26;20343;-72
2024/04/08 07:14:23;;;;;;;20.17;7.55;;;16.90;57.90;;;;;;5421567;26;20359;-75
2024/04/08 07:16:49;;;;;;;19.65;7.50;;;16.90;56.90;;;;;;5417110;26;20821;-72
2024/04/08 07:19:14;;;;;;;13.67;7.67;;;16.70;57.20;;;;;;5416026;26;20368;-71
2024/04/08 07:21:40;;;;;;;16.40;7.50;;;16.80;57.90;;;;;;5384277;26;20495;-72
2024/04/08 07:24:07;;;;;;;13.18;6.30;;;17.00;58.10;;;;;;5415508;26;20364;-71
2024/04/08 07:26:33;;;;;;;14.35;6.35;;;17.10;56.70;;;;;;5415283;26;20366;-70
2024/04/08 07:28:58;;;;;;;13.63;7.30;;;17.10;57.60;;;;;;5414796;26;20630;-72
2024/04/08 07:31:24;;;;;;;13.70;7.33;;;17.20;54.80;;;;;;5414541;26;20772;-72
2024/04/08 07:33:49;;;;;;;14.13;6.37;;;17.20;55.40;;;;;;5414105;26;20758;-72
2024/04/08 07:36:15;;;;;;;12.43;6.68;;;17.30;55.60;;;;;;5415116;26;20335;-72
2024/04/08 07:38:41;;;;;;;14.03;6.50;;;17.70;55.40;;;;;;5414878;26;20312;-72
2024/04/08 07:41:06;;;;;;;11.63;6.40;;;17.40;54.70;;;;;;5415847;26;20379;-71
2024/04/08 07:43:33;;;;;;;15.15;6.90;;;17.60;53.60;;;;;;5420560;26;20331;-74
2024/04/08 07:45:59;;;;;;;12.68;6.13;;;17.80;51.60;;;;;;5419833;26;20324;-72
2024/04/08 07:48:24;;;;;;;15.03;6.70;;;17.80;51.10;;;;;;5417581;26;20391;-74
2024/04/08 07:50:52;;;;;;;13.75;6.40;;;17.90;50.80;;;;;;5414627;26;20412;-73
2024/04/08 07:53:17;;;;;;;13.57;6.20;;;18.00;48.00;;;;;;5414274;26;20454;-72
2024/04/08 07:55:44;;;;;;;12.83;6.30;;;17.90;48.50;;;;;;5413672;26;20331;-71
2024/04/08 07:58:10;;;;;;;14.20;6.30;;;18.00;49.00;;;;;;5413715;26;20415;-72
2024/04/08 08:00:35;;;;;;;18.40;6.30;;;18.20;47.40;;;;;;5413577;26;20718;-72
2024/04/08 08:03:02;;;;;;;11.65;6.30;;;18.30;47.20;;;;;;5412510;26;20360;-71
2024/04/08 08:05:27;;;;;;;10.85;5.70;;;18.40;45.90;;;;;;5382001;26;20331;-71
2024/04/08 08:07:53;;;;;;;16.55;6.55;;;18.60;43.80;;;;;;5413511;26;20359;-71
2024/04/08 08:10:19;;;;;;;13.47;6.37;;;18.60;44.40;;;;;;5412823;26;20339;-72
2024/04/08 08:12:45;;;;;;;13.98;6.15;;;18.60;45.10;;;;;;5413205;26;20821;-72
2024/04/08 08:15:10;;;;;;;10.33;6.00;;;18.90;44.30;;;;;;5413613;26;20482;-73
2024/04/08 08:17:36;;;;;;;10.65;5.80;;;19.10;44.70;;;;;;5413393;26;20802;-71
2024/04/08 08:20:04;;;;;;;14.23;6.18;;;18.70;43.80;;;;;;5413072;26;20335;-72
2024/04/08 08:22:30;;;;;;;17.13;6.80;;;18.60;44.90;;;;;;5412633;26;20936;-71
2024/04/08 08:24:56;;;;;;;17.75;7.95;;;18.60;44.70;;;;;;5381447;26;20331;-71
2024/04/08 08:27:21;;;;;;;20.83;7.20;;;18.80;44.70;;;;;;5412805;26;20357;-72
2024/04/08 08:29:52;;;;;;;14.70;7.27;;;18.40;45.40;;;;;;5412805;26;20323;-72
2024/04/08 08:32:17;;;;;;;21.40;10.60;;;18.40;45.70;;;;;;5380677;26;20430;-72
2024/04/08 08:34:43;;;;;;;12.60;6.88;;;18.40;45.50;;;;;;5413093;26;20885;-72
2024/04/08 08:37:09;;;;;;;14.77;6.60;;;18.30;46.20;;;;;;5413445;26;20336;-71
2024/04/08 08:39:37;;;;;;;19.30;7.20;;;18.70;45.80;;;;;;5412855;26;20374;-72
2024/04/08 08:42:06;;;;;;;10.63;6.68;;;18.70;46.40;;;;;;5413433;26;20335;-72
2024/04/08 08:44:33;;;;;;;14.60;7.25;;;18.60;45.20;;;;;;5412414;26;20338;-70
2024/04/08 08:47:00;;;;;;;12.43;6.60;;;18.60;44.80;;;;;;5412790;26;20818;-71
2024/04/08 08:49:29;;;;;;;13.70;7.18;;;18.80;42.50;;;;;;5413010;26;20331;-70
2024/04/08 08:51:55;;;;;;;13.32;6.80;;;18.80;43.00;;;;;;5412583;26;20335;-71
2024/04/08 08:54:21;;;;;;;12.98;6.00;;;18.90;41.40;;;;;;5412669;26;20542;-71
2024/04/08 08:56:46;;;;;;;12.63;6.90;;;19.00;41.80;;;;;;5413073;26;20864;-70
2024/04/08 08:59:14;;;;;;;14.37;7.40;;;19.10;42.70;;;;;;5414680;26;20354;-72
2024/04/08 09:01:41;;;;;;;20.03;7.70;;;19.20;42.20;;;;;;5413521;26;20520;-72
2024/04/08 09:04:07;;;;;;;15.45;7.50;;;19.30;40.40;;;;;;5411196;26;20389;-71
2024/04/08 09:06:33;;;;;;;16.98;7.55;;;19.20;41.40;;;;;;5413286;26;20371;-71
2024/04/08 09:09:00;;;;;;;14.98;7.45;;;19.00;41.80;;;;;;5413348;26;20467;-73
2024/04/08 09:11:25;;;;;;;14.77;7.38;;;19.00;42.60;;;;;;5412689;26;20736;-71
2024/04/08 09:13:51;;;;;;;14.68;7.03;;;19.30;42.20;;;;;;5413236;26;20331;-72
2024/04/08 09:16:23;;;;;;;18.20;8.00;;;19.40;41.60;;;;;;5417167;26;20702;-72
2024/04/08 09:18:48;;;;;;;21.38;8.57;;;19.40;41.70;;;;;;5385302;26;20658;-71
2024/04/08 09:21:14;;;;;;;14.88;7.10;;;19.40;41.90;;;;;;5416388;26;20323;-71
2024/04/08 09:23:42;;;;;;;14.77;7.90;;;19.40;41.60;;;;;;5416100;26;20381;-72
2024/04/08 09:26:08;;;;;;;17.13;6.82;;;19.40;41.20;;;;;;5416952;26;20331;-72
2024/04/08 09:28:35;;;;;;;11.70;6.80;;;19.60;40.60;;;;;;5416154;26;20665;-72
2024/04/08 09:31:01;;;;;;;19.73;8.90;;;19.60;40.00;;;;;;5415530;26;20422;-71
2024/04/08 09:33:27;;;;;;;16.70;7.75;;;19.60;40.20;;;;;;5416003;26;20408;-72
2024/04/08 09:35:52;;;;;;;25.90;7.10;;;19.60;39.90;;;;;;5416543;26;20336;-71
2024/04/08 09:38:21;;;;;;;13.50;6.88;;;19.70;39.20;;;;;;5415748;26;20937;-70
2024/04/08 09:40:49;;;;;;;14.57;7.50;;;20.00;37.80;;;;;;5415960;26;20339;-72
2024/04/08 09:43:15;;;;;;;18.55;8.00;;;20.10;38.50;;;;;;5416007;26;20670;-72
2024/04/08 09:45:42;;;;;;;19.02;7.50;;;20.10;37.80;;;;;;5416174;26;20352;-71
2024/04/08 09:48:13;;;;;;;15.60;7.80;;;20.00;37.60;;;;;;5415948;26;20371;-71
2024/04/08 09:50:41;;;;;;;21.75;7.97;;;20.00;38.00;;;;;;5414537;26;20375;-71
2024/04/08 09:53:07;;;;;;;18.95;7.50;;;20.00;37.00;;;;;;5414752;26;20352;-70
2024/04/08 09:55:37;;;;;;;11.30;7.40;;;20.10;37.00;;;;;;5415691;26;20410;-72
2024/04/08 09:58:07;;;;;;;16.48;8.30;;;20.40;36.70;;;;;;5417536;26;20323;-72
2024/04/08 10:00:36;;;;;;;17.25;8.55;;;20.30;35.90;;;;;;5423195;26;20331;-72
2024/04/08 10:03:11;;;;;;;18.93;8.63;;;20.40;36.50;;;;;;5389250;26;20336;-71
2024/04/08 10:05:37;;;;;;;14.95;8.82;;;20.60;35.30;;;;;;5414932;26;20397;-72
2024/04/08 10:08:04;;;;;;;18.73;9.00;;;20.60;34.70;;;;;;5415231;26;20331;-71
2024/04/08 10:10:30;;;;;;;19.95;8.00;;;20.50;35.30;;;;;;5414829;26;20328;-71
2024/04/08 10:12:59;;;;;;;17.95;8.50;;;20.40;35.10;;;;;;5414427;26;20351;-71
2024/04/08 10:15:32;;;;;;;15.65;8.52;;;20.80;34.10;;;;;;5415155;26;20753;-71
2024/04/08 10:17:58;;;;;;;17.00;8.85;;;21.00;33.90;;;;;;5383606;26;20324;-71
2024/04/08 10:20:25;;;;;;;16.50;8.60;;;21.10;33.70;;;;;;5415367;26;20356;-72
2024/04/08 10:22:51;;;;;;;19.48;8.40;;;21.10;33.20;;;;;;5415018;26;20323;-73
2024/04/08 10:25:37;;;;;;;15.75;7.70;;;21.10;33.20;;;;;;5414886;26;20327;-73
2024/04/08 10:28:06;;;;;;;19.88;8.18;;;21.00;32.90;;;;;;5415420;26;20426;-74
2024/04/08 10:30:37;;;;;;;19.30;7.57;;;21.20;32.70;;;;;;5414887;26;20695;-72
2024/04/08 10:33:04;;;;;;;15.65;6.75;;;21.40;31.90;;;;;;5414456;26;20898;-72
2024/04/08 10:35:30;;;;;;;16.67;7.43;;;21.60;32.00;;;;;;5383830;26;20355;-71
2024/04/08 10:37:55;;;;;;;22.02;8.20;;;21.70;31.00;;;;;;5415146;26;20323;-73
2024/04/08 10:40:21;;;;;;;18.90;9.40;;;21.60;31.20;;;;;;5452524;21;20364;-75
2024/04/08 10:42:47;;;;;;;13.55;6.20;;;21.70;31.50;;;;;;5524398;26;20371;-74
2024/04/08 10:45:13;;;;;;;15.60;6.65;;;22.00;29.20;;;;;;5524284;26;20372;-74
2024/04/08 10:47:39;;;;;;;16.15;6.30;;;22.10;29.50;;;;;;5524185;26;20437;-73
2024/04/08 10:50:08;;;;;;;15.85;6.20;;;22.20;29.50;;;;;;5517038;26;20796;-74
2024/04/08 10:52:36;;;;;;;20.02;7.20;;;22.20;28.60;;;;;;5487229;26;20795;-75
2024/04/08 10:55:01;;;;;;;16.73;7.03;;;22.10;28.20;;;;;;5487402;26;20724;-74
2024/04/08 10:57:27;;;;;;;13.90;6.70;;;21.90;27.60;;;;;;5487374;26;20322;-73
2024/04/08 10:59:52;;;;;;;11.83;5.90;;;21.90;28.20;;;;;;5487177;26;20318;-74
2024/04/08 11:02:18;;;;;;;15.27;6.27;;;21.80;27.30;;;;;;5487021;26;20322;-75
2024/04/08 11:04:44;;;;;;;13.18;6.13;;;21.70;26.80;;;;;;5487573;26;20823;-74
2024/04/08 11:07:10;;;;;;;9.48;5.32;;;21.70;27.80;;;;;;5486892;26;20862;-73
2024/04/08 11:09:39;;;;;;;15.85;5.57;;;22.10;26.70;;;;;;5486785;26;20775;-74
2024/04/08 11:12:05;;;;;;;14.75;6.30;;;22.40;28.40;;;;;;5487015;26;20625;-74
2024/04/08 11:14:31;;;;;;;12.05;5.68;;;22.70;25.40;;;;;;5486964;26;20436;-75
2024/04/08 11:16:59;;;;;;;13.80;6.18;;;22.80;24.80;;;;;;5487064;26;20330;-75
2024/04/08 11:19:28;;;;;;;15.77;6.75;;;23.00;24.60;;;;;;5486878;26;20314;-74
2024/04/08 11:21:55;;;;;;;15.95;7.07;;;23.20;24.30;;;;;;5490418;26;20410;-75
2024/04/08 11:24:21;;;;;;;13.90;6.30;;;23.30;24.00;;;;;;5463220;26;20823;-76
2024/04/08 11:26:47;;;;;;;20.20;6.00;;;23.30;23.70;;;;;;5496331;26;20423;-74
2024/04/08 11:29:12;;;;;;;14.80;6.20;;;23.40;23.00;;;;;;5491053;26;20325;-75
2024/04/08 11:31:38;;;;;;;14.70;6.77;;;23.40;23.00;;;;;;5487103;26;20334;-76
2024/04/08 11:34:03;;;;;;;15.05;6.88;;;23.20;23.80;;;;;;5487204;26;20330;-74
2024/04/08 11:36:29;;;;;;;21.50;7.68;;;23.00;24.30;;;;;;5486397;26;20622;-75
2024/04/08 11:38:55;;;;;;;15.70;7.80;;;23.00;24.90;;;;;;5487093;26;20338;-76
2024/04/08 11:41:21;;;;;;;17.23;7.47;;;23.20;24.10;;;;;;5486611;26;20354;-75
2024/04/08 11:43:46;;;;;;;18.30;7.50;;;23.60;23.50;;;;;;5486789;26;20815;-75
2024/04/08 11:46:12;;;;;;;16.93;7.77;;;23.70;22.70;;;;;;5487165;26;20352;-74
2024/04/08 11:48:40;;;;;;;15.85;8.35;;;23.70;23.30;;;;;;5486278;26;20435;-76
2024/04/08 11:51:07;;;;;;;17.88;7.75;;;23.80;23.10;;;;;;5453696;26;20335;-75
2024/04/08 11:53:32;;;;;;;17.60;8.52;;;23.70;23.00;;;;;;5485915;26;20366;-74
2024/04/08 11:55:58;;;;;;;21.02;8.07;;;23.90;22.10;;;;;;5487207;26;20330;-75
2024/04/08 11:58:25;;;;;;;14.07;8.23;;;24.00;21.70;;;;;;5486481;26;20428;-74
2024/04/08 12:00:50;;;;;;;14.13;7.28;;;24.20;21.20;;;;;;5486485;26;20426;-74
2024/04/08 12:03:16;;;;;;;17.67;8.20;;;24.20;21.50;;;;;;5490015;26;20824;-75
2024/04/08 12:05:44;;;;;;;20.05;9.15;;;24.40;20.60;;;;;;5492761;26;20358;-74
2024/04/08 12:08:09;;;;;;;13.77;8.20;;;24.50;21.30;;;;;;5486349;26;20320;-73
2024/04/08 12:10:35;;;;;;;17.83;8.70;;;24.60;20.60;;;;;;5486036;26;20377;-73
2024/04/08 12:13:17;;;;;;;19.03;9.37;;;24.40;21.20;;;;;;5486160;26;20326;-74
2024/04/08 12:15:43;;;;;;;20.75;8.95;;;24.10;21.60;;;;;;5486074;26;20374;-75
2024/04/08 12:18:08;;;;;;;19.58;8.68;;;24.00;22.70;;;;;;5486316;26;20330;-75
2024/04/08 12:20:34;;;;;;;19.38;8.50;;;23.90;21.60;;;;;;5453798;26;20369;-74
2024/04/08 12:23:00;;;;;;;17.10;7.60;;;24.00;21.80;;;;;;5486745;26;20808;-74
2024/04/08 12:25:25;;;;;;;21.67;8.25;;;24.00;22.10;;;;;;5486854;26;20386;-74
2024/04/08 12:27:51;;;;;;;19.90;8.50;;;24.20;21.40;;;;;;5487535;26;20318;-75
2024/04/08 12:30:16;;;;;;;18.70;8.10;;;24.30;20.80;;;;;;5487899;26;20672;-75
2024/04/08 12:32:42;;;;;;;18.67;8.53;;;24.40;21.00;;;;;;5489190;26;20420;-75
2024/04/08 12:35:08;;;;;;;21.67;9.30;;;24.20;21.20;;;;;;5455535;26;20334;-74
2024/04/08 12:37:34;;;;;;;18.10;9.27;;;23.80;21.60;;;;;;5485855;26;20913;-73